sensor_id;sensor_type;location;lat;lon;timestamp;pressure;altitude;pressure_sealevel;temperature
20490;BMP280;10403;54.092;12.122;2023-12-29T00:02:16;100434.66;;;10.60
20490;BMP280;10403;54.092;12.122;2023-12-29T00:04:43;100431.25;;;10.56
20490;BMP280;10403;54.092;12.122;2023-12-29T00:07:11;100418.97;;;10.58
20490;BMP280;10403;54.092;12.122;2023-12-29T00:09:39;100411.19;;;10.57
20490;BMP280;10403;54.092;12.122;2023-12-29T00:12:08;100413.81;;;10.57
20490;BMP280;10403;54.092;12.122;2023-12-29T00:14:39;100420.78;;;10.56
20490;BMP280;10403;54.092;12.122;2023-12-29T00:17:07;100410.25;;;10.58
20490;BMP280;10403;54.092;12.122;2023-12-29T00:19:34;100406.81;;;10.57
20490;BMP280;10403;54.092;12.122;2023-12-29T00:22:02;100399.88;;;10.56
20490;BMP280;10403;54.092;12.122;2023-12-29T00:24:30;100410.31;;;10.56
20490;BMP280;10403;54.092;12.122;2023-12-29T00:27:01;100405.97;;;10.55
20490;BMP280;10403;54.092;12.122;2023-12-29T00:29:29;100412.97;;;10.55
20490;BMP280;10403;54.092;12.122;2023-12-29T00:32:00;100406.88;;;10.54
20490;BMP280;10403;54.092;12.122;2023-12-29T00:34:30;100420.78;;;10.56
20490;BMP280;10403;54.092;12.122;2023-12-29T00:36:58;100415.56;;;10.56
20490;BMP280;10403;54.092;12.122;2023-12-29T00:39:25;100413.72;;;10.60
20490;BMP280;10403;54.092;12.122;2023-12-29T00:41:57;100409.34;;;10.60
20490;BMP280;10403;54.092;12.122;2023-12-29T00:44:24;100405.00;;;10.59
20490;BMP280;10403;54.092;12.122;2023-12-29T00:46:51;100398.88;;;10.60
20490;BMP280;10403;54.092;12.122;2023-12-29T00:49:18;100400.63;;;10.60
20490;BMP280;10403;54.092;12.122;2023-12-29T00:51:48;100403.28;;;10.58
20490;BMP280;10403;54.092;12.122;2023-12-29T00:54:15;100390.19;;;10.58
20490;BMP280;10403;54.092;12.122;2023-12-29T00:56:50;100395.44;;;10.58
20490;BMP280;10403;54.092;12.122;2023-12-29T00:59:19;100399.75;;;10.61
20490;BMP280;10403;54.092;12.122;2023-12-29T01:01:49;100396.34;;;10.57
20490;BMP280;10403;54.092;12.122;2023-12-29T01:04:16;100403.22;;;10.63
20490;BMP280;10403;54.092;12.122;2023-12-29T01:06:44;100407.56;;;10.62
20490;BMP280;10403;54.092;12.122;2023-12-29T01:09:11;100411.03;;;10.64
20490;BMP280;10403;54.092;12.122;2023-12-29T01:11:39;100402.28;;;10.65
20490;BMP280;10403;54.092;12.122;2023-12-29T01:14:06;100410.13;;;10.67
20490;BMP280;10403;54.092;12.122;2023-12-29T01:16:33;100414.53;;;10.63
20490;BMP280;10403;54.092;12.122;2023-12-29T01:19:01;100405.78;;;10.64
20490;BMP280;10403;54.092;12.122;2023-12-29T01:21:28;100429.22;;;10.70
20490;BMP280;10403;54.092;12.122;2023-12-29T01:24:00;100433.53;;;10.71
20490;BMP280;10403;54.092;12.122;2023-12-29T01:26:30;100430.94;;;10.71
20490;BMP280;10403;54.092;12.122;2023-12-29T01:28:58;100435.31;;;10.69
20490;BMP280;10403;54.092;12.122;2023-12-29T01:31:29;100430.97;;;10.68
20490;BMP280;10403;54.092;12.122;2023-12-29T01:34:00;100423.19;;;10.67
20490;BMP280;10403;54.092;12.122;2023-12-29T01:36:27;100423.22;;;10.65
20490;BMP280;10403;54.092;12.122;2023-12-29T01:38:55;100419.78;;;10.62
20490;BMP280;10403;54.092;12.122;2023-12-29T01:41:22;100416.44;;;10.55
20490;BMP280;10403;54.092;12.122;2023-12-29T01:44:20;100410.41;;;10.52
20490;BMP280;10403;54.092;12.122;2023-12-29T01:46:55;100395.75;;;10.43
20490;BMP280;10403;54.092;12.122;2023-12-29T01:49:23;100389.75;;;10.38
20490;BMP280;10403;54.092;12.122;2023-12-29T01:51:55;100388.78;;;10.42
20490;BMP280;10403;54.092;12.122;2023-12-29T01:54:27;100385.34;;;10.40
20490;BMP280;10403;54.092;12.122;2023-12-29T01:56:59;100382.81;;;10.37
20490;BMP280;10403;54.092;12.122;2023-12-29T01:59:28;100374.19;;;10.30
20490;BMP280;10403;54.092;12.122;2023-12-29T02:01:56;100383.75;;;10.33
20490;BMP280;10403;54.092;12.122;2023-12-29T02:04:27;100382.88;;;10.32
20490;BMP280;10403;54.092;12.122;2023-12-29T02:06:55;100352.59;;;10.21
20490;BMP280;10403;54.092;12.122;2023-12-29T02:09:23;100357.66;;;10.28
20490;BMP280;10403;54.092;12.122;2023-12-29T02:11:50;100346.38;;;10.28
20490;BMP280;10403;54.092;12.122;2023-12-29T02:14:20;100350.78;;;10.26
20490;BMP280;10403;54.092;12.122;2023-12-29T02:17:05;100331.75;;;10.18
20490;BMP280;10403;54.092;12.122;2023-12-29T02:22:04;100329.91;;;10.23
20490;BMP280;10403;54.092;12.122;2023-12-29T02:24:33;100331.69;;;10.21
20490;BMP280;10403;54.092;12.122;2023-12-29T02:27:52;100329.16;;;10.18
20490;BMP280;10403;54.092;12.122;2023-12-29T02:38:40;100337.13;;;10.09
20490;BMP280;10403;54.092;12.122;2023-12-29T02:41:07;100329.28;;;10.09
20490;BMP280;10403;54.092;12.122;2023-12-29T02:43:34;100316.22;;;10.09
20490;BMP280;10403;54.092;12.122;2023-12-29T02:46:01;100325.84;;;10.07
20490;BMP280;10403;54.092;12.122;2023-12-29T02:48:29;100311.84;;;10.09
20490;BMP280;10403;54.092;12.122;2023-12-29T02:50:56;100310.19;;;10.05
20490;BMP280;10403;54.092;12.122;2023-12-29T02:53:23;100305.78;;;10.09
20490;BMP280;10403;54.092;12.122;2023-12-29T02:55:50;100296.16;;;10.09
20490;BMP280;10403;54.092;12.122;2023-12-29T02:58:17;100301.38;;;10.09
20490;BMP280;10403;54.092;12.122;2023-12-29T03:00:45;100287.50;;;10.07
20490;BMP280;10403;54.092;12.122;2023-12-29T03:03:12;100276.19;;;10.07
20490;BMP280;10403;54.092;12.122;2023-12-29T03:05:39;100270.06;;;10.08
20490;BMP280;10403;54.092;12.122;2023-12-29T03:08:07;100277.06;;;10.07
20490;BMP280;10403;54.092;12.122;2023-12-29T03:10:34;100273.56;;;10.07
20490;BMP280;10403;54.092;12.122;2023-12-29T03:13:01;100264.06;;;10.02
20490;BMP280;10403;54.092;12.122;2023-12-29T03:15:29;100281.38;;;10.08
20490;BMP280;10403;54.092;12.122;2023-12-29T03:17:56;100263.91;;;10.10
20490;BMP280;10403;54.092;12.122;2023-12-29T03:20:24;100262.16;;;10.11
20490;BMP280;10403;54.092;12.122;2023-12-29T03:22:51;100262.16;;;10.11
20490;BMP280;10403;54.092;12.122;2023-12-29T03:25:18;100246.47;;;10.11
20490;BMP280;10403;54.092;12.122;2023-12-29T03:27:45;100238.59;;;10.12
20490;BMP280;10403;54.092;12.122;2023-12-29T03:30:13;100238.59;;;10.12
20490;BMP280;10403;54.092;12.122;2023-12-29T03:32:40;100237.75;;;10.12
20490;BMP280;10403;54.092;12.122;2023-12-29T03:35:08;100229.91;;;10.12
20490;BMP280;10403;54.092;12.122;2023-12-29T03:37:35;100230.00;;;10.09
20490;BMP280;10403;54.092;12.122;2023-12-29T03:40:02;100219.53;;;10.09
20490;BMP280;10403;54.092;12.122;2023-12-29T03:42:29;100228.25;;;10.08
20490;BMP280;10403;54.092;12.122;2023-12-29T03:44:56;100226.59;;;10.03
20490;BMP280;10403;54.092;12.122;2023-12-29T03:47:25;100231.81;;;10.03
20490;BMP280;10403;54.092;12.122;2023-12-29T03:49:52;100235.25;;;10.06
20490;BMP280;10403;54.092;12.122;2023-12-29T03:52:19;100226.63;;;10.02
20490;BMP280;10403;54.092;12.122;2023-12-29T03:54:46;100216.28;;;9.97
20490;BMP280;10403;54.092;12.122;2023-12-29T03:57:13;100208.34;;;10.00
20490;BMP280;10403;54.092;12.122;2023-12-29T03:59:40;100223.06;;;10.06
20490;BMP280;10403;54.092;12.122;2023-12-29T04:02:08;100218.81;;;10.00
20490;BMP280;10403;54.092;12.122;2023-12-29T04:04:38;100222.16;;;10.07
20490;BMP280;10403;54.092;12.122;2023-12-29T04:07:06;100206.50;;;10.07
20490;BMP280;10403;54.092;12.122;2023-12-29T04:09:33;100204.78;;;10.06
20490;BMP280;10403;54.092;12.122;2023-12-29T04:12:00;100201.25;;;10.09
20490;BMP280;10403;54.092;12.122;2023-12-29T04:14:27;100196.84;;;10.09
20490;BMP280;10403;54.092;12.122;2023-12-29T04:16:54;100194.19;;;10.11
20490;BMP280;10403;54.092;12.122;2023-12-29T04:19:21;100195.06;;;10.11
20490;BMP280;10403;54.092;12.122;2023-12-29T04:21:49;100197.63;;;10.14
20490;BMP280;10403;54.092;12.122;2023-12-29T04:24:16;100200.22;;;10.16
20490;BMP280;10403;54.092;12.122;2023-12-29T04:26:43;100207.19;;;10.15
20490;BMP280;10403;54.092;12.122;2023-12-29T04:29:10;100195.88;;;10.15
20490;BMP280;10403;54.092;12.122;2023-12-29T04:31:37;100194.09;;;10.17
20490;BMP280;10403;54.092;12.122;2023-12-29T04:34:04;100189.78;;;10.14
20490;BMP280;10403;54.092;12.122;2023-12-29T04:36:32;100197.59;;;10.16
20490;BMP280;10403;54.092;12.122;2023-12-29T04:38:59;100206.31;;;10.18
20490;BMP280;10403;54.092;12.122;2023-12-29T04:41:26;100208.00;;;10.19
20490;BMP280;10403;54.092;12.122;2023-12-29T04:43:53;100212.31;;;10.21
20490;BMP280;10403;54.092;12.122;2023-12-29T04:46:20;100209.69;;;10.21
20490;BMP280;10403;54.092;12.122;2023-12-29T04:48:47;100207.94;;;10.22
20490;BMP280;10403;54.092;12.122;2023-12-29T04:51:15;100212.31;;;10.21
20490;BMP280;10403;54.092;12.122;2023-12-29T04:53:42;100199.28;;;10.20
20490;BMP280;10403;54.092;12.122;2023-12-29T04:56:09;100194.09;;;10.17
20490;BMP280;10403;54.092;12.122;2023-12-29T04:58:37;100183.75;;;10.11
20490;BMP280;10403;54.092;12.122;2023-12-29T05:01:04;100181.31;;;10.03
20490;BMP280;10403;54.092;12.122;2023-12-29T05:03:32;100184.84;;;10.00
20490;BMP280;10403;54.092;12.122;2023-12-29T05:05:59;100201.41;;;9.99
20490;BMP280;10403;54.092;12.122;2023-12-29T05:08:26;100195.31;;;9.99
20490;BMP280;10403;54.092;12.122;2023-12-29T05:10:53;100210.22;;;9.95
20490;BMP280;10403;54.092;12.122;2023-12-29T05:13:20;100199.06;;;9.87
20490;BMP280;10403;54.092;12.122;2023-12-29T05:15:48;100210.28;;;9.91
20490;BMP280;10403;54.092;12.122;2023-12-29T05:18:15;100226.00;;;9.89
20490;BMP280;10403;54.092;12.122;2023-12-29T05:20:42;100215.66;;;9.83
20490;BMP280;10403;54.092;12.122;2023-12-29T05:23:10;100219.13;;;9.85
20490;BMP280;10403;54.092;12.122;2023-12-29T05:25:37;100206.13;;;9.82
20490;BMP280;10403;54.092;12.122;2023-12-29T05:28:04;100201.81;;;9.80
20490;BMP280;10403;54.092;12.122;2023-12-29T05:30:31;100210.50;;;9.80
20490;BMP280;10403;54.092;12.122;2023-12-29T05:32:59;100207.94;;;9.79
20490;BMP280;10403;54.092;12.122;2023-12-29T05:35:26;100218.34;;;9.80
20490;BMP280;10403;54.092;12.122;2023-12-29T05:37:54;100216.59;;;9.81
20490;BMP280;10403;54.092;12.122;2023-12-29T05:40:21;100226.16;;;9.80
20490;BMP280;10403;54.092;12.122;2023-12-29T05:42:48;100232.25;;;9.81
20490;BMP280;10403;54.092;12.122;2023-12-29T05:45:16;100229.66;;;9.81
20490;BMP280;10403;54.092;12.122;2023-12-29T05:47:44;100186.09;;;9.81
20490;BMP280;10403;54.092;12.122;2023-12-29T05:50:11;100152.13;;;9.83
20490;BMP280;10403;54.092;12.122;2023-12-29T05:52:39;100098.09;;;9.85
20490;BMP280;10403;54.092;12.122;2023-12-29T05:55:06;100094.59;;;9.86
20490;BMP280;10403;54.092;12.122;2023-12-29T05:57:34;100128.53;;;9.87
20490;BMP280;10403;54.092;12.122;2023-12-29T06:00:01;100150.28;;;9.88
20490;BMP280;10403;54.092;12.122;2023-12-29T06:02:28;100163.28;;;9.89
20490;BMP280;10403;54.092;12.122;2023-12-29T06:04:55;100176.41;;;9.88
20490;BMP280;10403;54.092;12.122;2023-12-29T06:07:22;100170.31;;;9.87
20490;BMP280;10403;54.092;12.122;2023-12-29T06:09:50;100174.72;;;9.85
20490;BMP280;10403;54.092;12.122;2023-12-29T06:12:17;100180.81;;;9.84
20490;BMP280;10403;54.092;12.122;2023-12-29T06:14:44;100180.81;;;9.84
20490;BMP280;10403;54.092;12.122;2023-12-29T06:17:11;100195.69;;;9.81
20490;BMP280;10403;54.092;12.122;2023-12-29T06:19:39;100189.69;;;9.77
20490;BMP280;10403;54.092;12.122;2023-12-29T06:22:07;100194.13;;;9.72
20490;BMP280;10403;54.092;12.122;2023-12-29T06:24:38;100202.75;;;9.77
20490;BMP280;10403;54.092;12.122;2023-12-29T06:27:08;100210.59;;;9.76
20490;BMP280;10403;54.092;12.122;2023-12-29T06:29:36;100215.00;;;9.74
20490;BMP280;10403;54.092;12.122;2023-12-29T06:32:03;100207.25;;;9.69
20490;BMP280;10403;54.092;12.122;2023-12-29T06:34:31;100212.47;;;9.69
20490;BMP280;10403;54.092;12.122;2023-12-29T06:36:58;100213.38;;;9.68
20490;BMP280;10403;54.092;12.122;2023-12-29T06:39:25;100217.75;;;9.66
20490;BMP280;10403;54.092;12.122;2023-12-29T06:41:53;100211.72;;;9.62
20490;BMP280;10403;54.092;12.122;2023-12-29T06:44:20;100217.09;;;9.55
20490;BMP280;10403;54.092;12.122;2023-12-29T06:46:48;100229.22;;;9.57
20490;BMP280;10403;54.092;12.122;2023-12-29T06:49:15;100233.63;;;9.54
20490;BMP280;10403;54.092;12.122;2023-12-29T06:51:42;100227.69;;;9.47
20490;BMP280;10403;54.092;12.122;2023-12-29T06:54:10;100243.25;;;9.52
20490;BMP280;10403;54.092;12.122;2023-12-29T06:56:37;100237.22;;;9.50
20490;BMP280;10403;54.092;12.122;2023-12-29T06:59:04;100233.75;;;9.48
20490;BMP280;10403;54.092;12.122;2023-12-29T07:01:31;100233.75;;;9.48
20490;BMP280;10403;54.092;12.122;2023-12-29T07:03:59;100241.59;;;9.48
20490;BMP280;10403;54.092;12.122;2023-12-29T07:06:26;100230.31;;;9.46
20490;BMP280;10403;54.092;12.122;2023-12-29T07:08:55;100233.81;;;9.43
20490;BMP280;10403;54.092;12.122;2023-12-29T07:11:22;100244.28;;;9.42
20490;BMP280;10403;54.092;12.122;2023-12-29T07:13:49;100253.06;;;9.39
20490;BMP280;10403;54.092;12.122;2023-12-29T07:16:17;100252.22;;;9.37
20490;BMP280;10403;54.092;12.122;2023-12-29T07:18:47;100234.84;;;9.35
20490;BMP280;10403;54.092;12.122;2023-12-29T07:21:15;100247.94;;;9.32
20490;BMP280;10403;54.092;12.122;2023-12-29T07:23:46;100245.34;;;9.32
20490;BMP280;10403;54.092;12.122;2023-12-29T07:26:13;100251.44;;;9.31
20490;BMP280;10403;54.092;12.122;2023-12-29T07:28:40;100257.59;;;9.28
20490;BMP280;10403;54.092;12.122;2023-12-29T07:31:07;100258.47;;;9.28
20490;BMP280;10403;54.092;12.122;2023-12-29T07:33:35;100258.47;;;9.28
20490;BMP280;10403;54.092;12.122;2023-12-29T07:36:02;100264.56;;;9.27
20490;BMP280;10403;54.092;12.122;2023-12-29T07:38:30;100266.28;;;9.28
20490;BMP280;10403;54.092;12.122;2023-12-29T07:40:57;100269.75;;;9.29
20490;BMP280;10403;54.092;12.122;2023-12-29T07:43:24;100268.91;;;9.28
20490;BMP280;10403;54.092;12.122;2023-12-29T07:45:51;100272.38;;;9.27
20490;BMP280;10403;54.092;12.122;2023-12-29T07:48:19;100268.91;;;9.28
20490;BMP280;10403;54.092;12.122;2023-12-29T07:50:46;100268.00;;;9.30
20490;BMP280;10403;54.092;12.122;2023-12-29T07:53:13;100271.50;;;9.28
20490;BMP280;10403;54.092;12.122;2023-12-29T07:55:41;100275.88;;;9.28
20490;BMP280;10403;54.092;12.122;2023-12-29T07:58:09;100275.00;;;9.27
20490;BMP280;10403;54.092;12.122;2023-12-29T08:00:37;100274.13;;;9.28
20490;BMP280;10403;54.092;12.122;2023-12-29T08:03:05;100281.94;;;9.30
20490;BMP280;10403;54.092;12.122;2023-12-29T08:05:33;100284.53;;;9.30
20490;BMP280;10403;54.092;12.122;2023-12-29T08:08:01;100281.88;;;9.32
20490;BMP280;10403;54.092;12.122;2023-12-29T08:10:28;100278.34;;;9.34
20490;BMP280;10403;54.092;12.122;2023-12-29T08:12:55;100271.38;;;9.35
20490;BMP280;10403;54.092;12.122;2023-12-29T08:15:22;100268.75;;;9.38
20490;BMP280;10403;54.092;12.122;2023-12-29T08:17:50;100264.38;;;9.38
20490;BMP280;10403;54.092;12.122;2023-12-29T08:20:17;100280.03;;;9.40
20490;BMP280;10403;54.092;12.122;2023-12-29T08:22:44;100275.63;;;9.42
20490;BMP280;10403;54.092;12.122;2023-12-29T08:25:11;100282.59;;;9.41
20490;BMP280;10403;54.092;12.122;2023-12-29T08:27:39;100272.13;;;9.43
20490;BMP280;10403;54.092;12.122;2023-12-29T08:30:08;100281.69;;;9.44
20490;BMP280;10403;54.092;12.122;2023-12-29T08:32:36;100278.16;;;9.46
20490;BMP280;10403;54.092;12.122;2023-12-29T08:35:03;100280.75;;;9.48
20490;BMP280;10403;54.092;12.122;2023-12-29T08:37:31;100292.06;;;9.48
20490;BMP280;10403;54.092;12.122;2023-12-29T08:40:00;100279.94;;;9.44
20490;BMP280;10403;54.092;12.122;2023-12-29T08:42:28;100285.91;;;9.51
20490;BMP280;10403;54.092;12.122;2023-12-29T08:44:58;100285.00;;;9.52
20490;BMP280;10403;54.092;12.122;2023-12-29T08:47:25;100288.50;;;9.52
20490;BMP280;10403;54.092;12.122;2023-12-29T08:49:52;100287.63;;;9.52
20490;BMP280;10403;54.092;12.122;2023-12-29T08:52:21;100286.75;;;9.51
20490;BMP280;10403;54.092;12.122;2023-12-29T08:54:48;100279.78;;;9.52
20490;BMP280;10403;54.092;12.122;2023-12-29T08:57:16;100287.59;;;9.53
20490;BMP280;10403;54.092;12.122;2023-12-29T08:59:43;100273.72;;;9.51
20490;BMP280;10403;54.092;12.122;2023-12-29T09:02:10;100284.97;;;9.55
20490;BMP280;10403;54.092;12.122;2023-12-29T09:04:37;100291.91;;;9.57
20490;BMP280;10403;54.092;12.122;2023-12-29T09:07:04;100292.75;;;9.58
20490;BMP280;10403;54.092;12.122;2023-12-29T09:09:33;100282.31;;;9.58
20490;BMP280;10403;54.092;12.122;2023-12-29T09:12:00;100281.53;;;9.53
20490;BMP280;10403;54.092;12.122;2023-12-29T09:14:28;100292.75;;;9.58
20490;BMP280;10403;54.092;12.122;2023-12-29T09:16:58;100294.50;;;9.57
20490;BMP280;10403;54.092;12.122;2023-12-29T09:19:25;100297.13;;;9.57
20490;BMP280;10403;54.092;12.122;2023-12-29T09:22:05;100284.06;;;9.57
20490;BMP280;10403;54.092;12.122;2023-12-29T09:24:32;100296.19;;;9.60
20490;BMP280;10403;54.092;12.122;2023-12-29T09:26:59;100299.63;;;9.62
20490;BMP280;10403;54.092;12.122;2023-12-29T09:29:26;100295.28;;;9.62
20490;BMP280;10403;54.092;12.122;2023-12-29T09:31:54;100301.34;;;9.64
20490;BMP280;10403;54.092;12.122;2023-12-29T09:34:21;100290.91;;;9.64
20490;BMP280;10403;54.092;12.122;2023-12-29T09:36:48;100302.19;;;9.65
20490;BMP280;10403;54.092;12.122;2023-12-29T09:39:15;100309.19;;;9.64
20490;BMP280;10403;54.092;12.122;2023-12-29T09:41:46;100312.66;;;9.65
20490;BMP280;10403;54.092;12.122;2023-12-29T09:44:14;100298.91;;;9.54
20490;BMP280;10403;54.092;12.122;2023-12-29T09:46:42;100316.16;;;9.64
20490;BMP280;10403;54.092;12.122;2023-12-29T09:49:13;100317.03;;;9.63
20490;BMP280;10403;54.092;12.122;2023-12-29T09:51:41;100315.31;;;9.60
20490;BMP280;10403;54.092;12.122;2023-12-29T09:54:09;100317.03;;;9.63
20490;BMP280;10403;54.092;12.122;2023-12-29T09:56:41;100313.56;;;9.61
20490;BMP280;10403;54.092;12.122;2023-12-29T09:59:10;100312.69;;;9.62
20490;BMP280;10403;54.092;12.122;2023-12-29T10:01:41;100313.56;;;9.61
20490;BMP280;10403;54.092;12.122;2023-12-29T10:04:08;100310.91;;;9.65
20490;BMP280;10403;54.092;12.122;2023-12-29T10:06:39;100303.94;;;9.66
20490;BMP280;10403;54.092;12.122;2023-12-29T10:09:12;100308.25;;;9.67
20490;BMP280;10403;54.092;12.122;2023-12-29T10:11:42;100304.69;;;9.71
20490;BMP280;10403;54.092;12.122;2023-12-29T10:14:36;100295.06;;;9.75
20490;BMP280;10403;54.092;12.122;2023-12-29T10:20:18;100280.13;;;9.81
20490;BMP280;10403;54.092;12.122;2023-12-29T10:23:06;100292.22;;;9.88
20490;BMP280;10403;54.092;12.122;2023-12-29T10:25:35;100287.78;;;9.92
20490;BMP280;10403;54.092;12.122;2023-12-29T10:28:04;100280.78;;;9.94
20490;BMP280;10403;54.092;12.122;2023-12-29T10:30:32;100279.78;;;9.99
20490;BMP280;10403;54.092;12.122;2023-12-29T10:33:03;100307.63;;;10.00
20490;BMP280;10403;54.092;12.122;2023-12-29T10:35:32;100266.00;;;9.91
20490;BMP280;10403;54.092;12.122;2023-12-29T10:38:12;100293.63;;;10.05
20490;BMP280;10403;54.092;12.122;2023-12-29T10:40:40;100288.41;;;10.05
20490;BMP280;10403;54.092;12.122;2023-12-29T10:43:10;100299.72;;;10.05
20490;BMP280;10403;54.092;12.122;2023-12-29T10:45:37;100301.50;;;10.03
20490;BMP280;10403;54.092;12.122;2023-12-29T10:48:05;100276.25;;;10.02
20490;BMP280;10403;54.092;12.122;2023-12-29T10:50:46;100282.34;;;10.02
20490;BMP280;10403;54.092;12.122;2023-12-29T10:53:14;100283.38;;;9.95
20490;BMP280;10403;54.092;12.122;2023-12-29T10:55:45;100293.78;;;9.98
20490;BMP280;10403;54.092;12.122;2023-12-29T10:58:16;100299.00;;;9.98
20490;BMP280;10403;54.092;12.122;2023-12-29T11:00:46;100299.88;;;9.97
20490;BMP280;10403;54.092;12.122;2023-12-29T11:03:15;100306.84;;;9.98
20490;BMP280;10403;54.092;12.122;2023-12-29T11:05:45;100284.22;;;9.96
20490;BMP280;10403;54.092;12.122;2023-12-29T11:08:18;100314.72;;;9.95
20490;BMP280;10403;54.092;12.122;2023-12-29T11:10:48;100317.34;;;9.95
20490;BMP280;10403;54.092;12.122;2023-12-29T11:13:16;100306.88;;;9.95
20490;BMP280;10403;54.092;12.122;2023-12-29T11:15:47;100310.34;;;9.96
20490;BMP280;10403;54.092;12.122;2023-12-29T11:18:16;100312.94;;;9.97
20490;BMP280;10403;54.092;12.122;2023-12-29T11:20:45;100309.44;;;9.98
20490;BMP280;10403;54.092;12.122;2023-12-29T11:23:13;100304.16;;;10.00
20490;BMP280;10403;54.092;12.122;2023-12-29T11:25:44;100304.16;;;10.01
20490;BMP280;10403;54.092;12.122;2023-12-29T11:28:13;100298.91;;;10.01
20490;BMP280;10403;54.092;12.122;2023-12-29T11:30:40;100302.41;;;10.00
20490;BMP280;10403;54.092;12.122;2023-12-29T11:33:21;100278.91;;;10.00
20490;BMP280;10403;54.092;12.122;2023-12-29T11:36:00;100275.41;;;10.00
20490;BMP280;10403;54.092;12.122;2023-12-29T11:41:45;100271.06;;;10.00
20490;BMP280;10403;54.092;12.122;2023-12-29T11:44:27;100260.59;;;10.02
20490;BMP280;10403;54.092;12.122;2023-12-29T11:46:56;100264.97;;;10.00
20490;BMP280;10403;54.092;12.122;2023-12-29T11:49:24;100267.59;;;10.00
20490;BMP280;10403;54.092;12.122;2023-12-29T11:51:52;100269.22;;;10.06
20490;BMP280;10403;54.092;12.122;2023-12-29T11:54:26;100271.84;;;10.06
20490;BMP280;10403;54.092;12.122;2023-12-29T11:56:54;100279.66;;;10.07
20490;BMP280;10403;54.092;12.122;2023-12-29T11:59:26;100270.06;;;10.08
20490;BMP280;10403;54.092;12.122;2023-12-29T12:01:57;100266.56;;;10.09
20490;BMP280;10403;54.092;12.122;2023-12-29T12:04:44;100270.00;;;10.09
20490;BMP280;10403;54.092;12.122;2023-12-29T12:10:29;100264.78;;;10.09
20490;BMP280;10403;54.092;12.122;2023-12-29T12:13:00;100267.47;;;10.08
20490;BMP280;10403;54.092;12.122;2023-12-29T12:17:57;100254.41;;;10.06
20490;BMP280;10403;54.092;12.122;2023-12-29T12:20:25;100269.09;;;10.12
20490;BMP280;10403;54.092;12.122;2023-12-29T12:23:01;100261.25;;;10.12
20490;BMP280;10403;54.092;12.122;2023-12-29T12:25:31;100272.59;;;10.11
20490;BMP280;10403;54.092;12.122;2023-12-29T12:28:08;100271.69;;;10.13
20490;BMP280;10403;54.092;12.122;2023-12-29T12:30:36;100259.53;;;10.11
20490;BMP280;10403;54.092;12.122;2023-12-29T12:33:04;100263.00;;;10.11
20490;BMP280;10403;54.092;12.122;2023-12-29T12:35:33;100275.22;;;10.11
20490;BMP280;10403;54.092;12.122;2023-12-29T12:38:27;100279.63;;;10.09
20490;BMP280;10403;54.092;12.122;2023-12-29T12:40:57;100263.09;;;10.08
20490;BMP280;10403;54.092;12.122;2023-12-29T12:43:27;100272.69;;;10.08
20490;BMP280;10403;54.092;12.122;2023-12-29T12:46:00;100250.16;;;10.00
20490;BMP280;10403;54.092;12.122;2023-12-29T12:48:41;100252.69;;;10.05
20490;BMP280;10403;54.092;12.122;2023-12-29T12:51:11;100260.56;;;10.03
20490;BMP280;10403;54.092;12.122;2023-12-29T12:53:41;100262.34;;;10.01
20490;BMP280;10403;54.092;12.122;2023-12-29T12:56:08;100263.25;;;9.99
20490;BMP280;10403;54.092;12.122;2023-12-29T12:58:36;100265.97;;;9.94
20490;BMP280;10403;54.092;12.122;2023-12-29T13:01:05;100243.47;;;9.87
20490;BMP280;10403;54.092;12.122;2023-12-29T13:03:33;100259.16;;;9.87
20490;BMP280;10403;54.092;12.122;2023-12-29T13:06:01;100266.16;;;9.85
20490;BMP280;10403;54.092;12.122;2023-12-29T13:08:28;100262.66;;;9.85
20490;BMP280;10403;54.092;12.122;2023-12-29T13:11:04;100274.88;;;9.84
20490;BMP280;10403;54.092;12.122;2023-12-29T13:13:40;100268.88;;;9.79
20490;BMP280;10403;54.092;12.122;2023-12-29T13:16:08;100264.44;;;9.83
20490;BMP280;10403;54.092;12.122;2023-12-29T13:18:35;100267.06;;;9.81
20490;BMP280;10403;54.092;12.122;2023-12-29T13:21:03;100264.47;;;9.81
20490;BMP280;10403;54.092;12.122;2023-12-29T13:23:31;100256.72;;;9.77
20490;BMP280;10403;54.092;12.122;2023-12-29T13:26:09;100259.25;;;9.81
20490;BMP280;10403;54.092;12.122;2023-12-29T13:28:38;100255.75;;;9.81
20490;BMP280;10403;54.092;12.122;2023-12-29T13:31:11;100245.38;;;9.79
20490;BMP280;10403;54.092;12.122;2023-12-29T13:34:01;100256.63;;;9.81
20490;BMP280;10403;54.092;12.122;2023-12-29T13:37:23;100247.94;;;9.81
20490;BMP280;10403;54.092;12.122;2023-12-29T13:39:50;100239.28;;;9.79
20490;BMP280;10403;54.092;12.122;2023-12-29T13:42:22;100247.97;;;9.79
20490;BMP280;10403;54.092;12.122;2023-12-29T13:44:53;100243.66;;;9.78
20490;BMP280;10403;54.092;12.122;2023-12-29T13:47:21;100229.75;;;9.76
20490;BMP280;10403;54.092;12.122;2023-12-29T13:49:50;100223.75;;;9.70
20490;BMP280;10403;54.092;12.122;2023-12-29T13:52:18;100229.06;;;9.67
20490;BMP280;10403;54.092;12.122;2023-12-29T13:54:46;100234.19;;;9.71
20490;BMP280;10403;54.092;12.122;2023-12-29T13:57:14;100237.72;;;9.69
20490;BMP280;10403;54.092;12.122;2023-12-29T13:59:43;100233.44;;;9.64
20490;BMP280;10403;54.092;12.122;2023-12-29T14:02:23;100233.41;;;9.66
20490;BMP280;10403;54.092;12.122;2023-12-29T14:05:22;100235.19;;;9.64
20490;BMP280;10403;54.092;12.122;2023-12-29T14:08:33;100224.00;;;9.59
20490;BMP280;10403;54.092;12.122;2023-12-29T14:11:09;100235.31;;;9.58
20490;BMP280;10403;54.092;12.122;2023-12-29T14:13:42;100221.50;;;9.51
20490;BMP280;10403;54.092;12.122;2023-12-29T14:16:11;100242.34;;;9.53
20490;BMP280;10403;54.092;12.122;2023-12-29T14:18:53;100235.38;;;9.53
20490;BMP280;10403;54.092;12.122;2023-12-29T14:21:31;100246.75;;;9.51
20490;BMP280;10403;54.092;12.122;2023-12-29T14:24:14;100244.25;;;9.45
20490;BMP280;10403;54.092;12.122;2023-12-29T14:29:20;100240.72;;;9.49
20490;BMP280;10403;54.092;12.122;2023-12-29T14:31:48;100237.22;;;9.50